Time;durP1;ratioP1;P1;durP2;ratioP2;P2;SDS_P1;SDS_P2;PMS_P1;PMS_P2;Temp;Humidity;BMP_temperature;BMP_pressure;BME280_temperature;BME280_humidity;BME280_pressure;Samples;Min_cycle;Max_cycle;Signal;HPM_P1;HPM_P2
2022/07/02 00:00:01;;;;;;;6.57;2.33;;;;;;;13.63;72.57;102086.59;4720408;30;20520;-87
2022/07/02 00:02:41;;;;;;;8.18;2.70;;;;;;;13.69;71.69;102108.66;4748195;30;20077;-87
2022/07/02 00:05:07;;;;;;;5.77;2.00;;;;;;;13.55;71.41;102090.25;4705680;30;20045;-87
2022/07/02 00:07:33;;;;;;;6.90;2.35;;;;;;;13.63;71.88;102110.53;4719876;30;20043;-87
2022/07/02 00:09:59;;;;;;;6.53;2.63;;;;;;;13.58;73.35;102101.75;4734478;30;20138;-87
2022/07/02 00:12:28;;;;;;;7.40;2.70;;;;;;;13.49;72.98;102094.75;4719316;30;20131;-87
2022/07/02 00:15:12;;;;;;;10.15;2.55;;;;;;;13.46;73.13;102100.13;4734109;30;20141;-87
2022/07/02 00:17:41;;;;;;;5.78;2.42;;;;;;;13.33;73.12;102078.13;4718573;30;20044;-87
2022/07/02 00:20:18;;;;;;;5.07;2.10;;;;;;;13.43;73.55;102101.06;4720271;30;20122;-88
2022/07/02 00:22:47;;;;;;;5.35;2.30;;;;;;;13.40;73.92;102102.84;4703836;30;20044;-87
2022/07/02 00:25:15;;;;;;;8.63;2.50;;;;;;;13.34;72.75;102106.47;4729926;30;20049;-87
2022/07/02 00:27:43;;;;;;;6.57;2.42;;;;;;;13.26;72.79;102087.94;4719834;30;20128;-87
2022/07/02 00:30:29;;;;;;;8.10;2.60;;;;;;;13.24;73.61;102087.06;4705033;30;20081;-88
2022/07/02 00:32:58;;;;;;;4.40;2.03;;;;;;;13.22;73.65;102091.53;4704649;30;20485;-88
2022/07/02 00:35:29;;;;;;;4.63;2.20;;;;;;;13.22;73.87;102104.81;4719970;30;20045;-88
2022/07/02 00:38:01;;;;;;;6.22;2.20;;;;;;;13.15;72.61;102103.13;4719632;30;20036;-88
2022/07/02 00:40:30;;;;;;;6.65;2.63;;;;;;;13.11;73.77;102104.09;4719583;30;20040;-88
2022/07/02 00:42:58;;;;;;;12.45;2.35;;;;;;;13.07;74.63;102105.88;4735357;30;20055;-94
2022/07/02 00:45:27;;;;;;;8.25;2.40;;;;;;;12.90;74.55;102092.78;4705977;30;20048;-95
2022/07/02 00:47:55;;;;;;;6.75;2.10;;;;;;;12.88;74.02;102093.72;4720498;30;20033;-94
2022/07/02 00:50:32;;;;;;;10.18;2.35;;;;;;;12.92;74.68;102103.41;4721157;30;20028;-93
2022/07/02 00:52:58;;;;;;;10.25;2.85;;;;;;;12.84;75.35;102081.38;4720538;30;20040;-94
2022/07/02 00:55:31;;;;;;;12.35;2.38;;;;;;;12.83;75.87;102085.81;4706381;30;20051;-95
2022/07/02 00:58:01;;;;;;;5.07;2.10;;;;;;;12.87;74.84;102099.94;4706519;30;20055;-93
2022/07/02 01:00:28;;;;;;;6.57;2.40;;;;;;;12.78;74.59;102084.06;4720425;30;20044;-94
2022/07/02 01:02:59;;;;;;;6.47;2.45;;;;;;;12.74;75.52;102077.94;4720418;30;20024;-93
2022/07/02 01:05:31;;;;;;;5.57;2.42;;;;;;;12.82;76.42;102089.34;4690787;30;20082;-94
2022/07/02 01:10:49;;;;;;;4.15;2.38;;;;;;;12.70;75.41;102077.06;4720560;30;20148;-94
2022/07/02 01:20:56;;;;;;;6.45;3.33;;;;;;;12.75;76.83;102086.78;4673386;30;20136;-93
2022/07/02 01:23:27;;;;;;;6.53;2.65;;;;;;;12.70;76.18;102081.50;4688947;30;20048;-93
2022/07/02 01:25:53;;;;;;;7.35;2.70;;;;;;;12.69;75.95;102077.97;4699652;30;20095;-92
2022/07/02 01:28:20;;;;;;;7.78;2.60;;;;;;;12.63;76.45;102079.81;4703392;30;20393;-93
2022/07/02 01:30:50;;;;;;;12.75;2.70;;;;;;;12.65;76.12;102073.59;4703725;30;20097;-94
2022/07/02 01:33:20;;;;;;;6.57;2.97;;;;;;;12.62;77.39;102084.25;4703112;30;20093;-93
2022/07/02 01:35:49;;;;;;;6.82;3.00;;;;;;;12.62;76.78;102083.38;4703478;30;20045;-93
2022/07/02 01:38:14;;;;;;;8.57;3.00;;;;;;;12.61;77.46;102082.50;4703705;30;20497;-93
2022/07/02 01:40:50;;;;;;;7.78;3.05;;;;;;;12.66;77.69;102085.09;4704109;30;20041;-93
2022/07/02 01:43:23;;;;;;;8.27;2.85;;;;;;;12.59;76.62;102083.41;4708680;30;20041;-93
2022/07/02 01:45:49;;;;;;;8.35;2.95;;;;;;;12.58;77.15;102081.63;4681827;30;20045;-93
2022/07/02 01:48:16;;;;;;;10.57;3.03;;;;;;;12.66;77.81;102096.63;4702524;30;20393;-94
2022/07/02 01:50:45;;;;;;;10.35;3.30;;;;;;;12.66;78.39;102087.75;4702572;30;20504;-94
2022/07/02 01:53:21;;;;;;;9.63;3.38;;;;;;;12.72;78.14;102093.00;4688261;30;20048;-94
2022/07/02 01:56:00;;;;;;;10.80;3.17;;;;;;;12.77;78.45;102093.84;4686982;30;20132;-93
2022/07/02 02:02:39;;;;;;;8.10;3.00;;;;;;;12.71;76.69;102072.66;4718114;30;20043;-93
2022/07/02 02:09:19;;;;;;;9.70;3.42;;;;;;;12.83;78.00;102084.91;4699166;30;20064;-93
2022/07/02 02:11:45;;;;;;;8.18;3.33;;;;;;;12.79;78.52;102081.41;4683849;30;20539;-93
2022/07/02 02:14:22;;;;;;;9.20;3.00;;;;;;;12.79;78.32;102078.75;4698818;30;20068;-93
2022/07/02 02:16:56;;;;;;;9.57;3.15;;;;;;;12.78;77.78;102078.75;4688398;30;20114;-92
2022/07/02 02:23:19;;;;;;;5.97;2.78;;;;;;;12.77;76.62;102069.91;4717892;30;20056;-92
2022/07/02 02:25:44;;;;;;;8.02;3.08;;;;;;;12.74;77.68;102063.78;4687368;30;20084;-93
2022/07/02 02:28:23;;;;;;;;;;;;;;;;;;;;;
2022/07/02 02:31:22;;;;;;;8.48;3.22;;;;;;;12.74;77.59;102079.72;4695952;30;20131;-92
2022/07/02 02:33:48;;;;;;;11.30;3.13;;;;;;;12.67;78.20;102070.91;4682919;30;20049;-92
2022/07/02 02:36:17;;;;;;;7.20;2.88;;;;;;;12.68;78.99;102077.97;4687632;30;20029;-92
2022/07/02 02:38:47;;;;;;;8.50;3.33;;;;;;;12.73;78.80;102070.84;4691565;30;20423;-91
2022/07/02 02:45:14;;;;;;;8.50;3.28;;;;;;;12.80;78.51;102071.66;4718392;30;20103;-94
2022/07/02 02:47:58;;;;;;;16.60;3.60;;;;;;;12.87;78.34;102076.00;4690336;30;20041;-93
2022/07/02 02:50:36;;;;;;;;;;;;;;;;;;;;;
2022/07/02 02:53:15;;;;;;;10.45;3.53;;;;;;;12.83;78.37;102076.94;4723739;30;20104;-94
2022/07/02 02:55:41;;;;;;;8.05;2.90;;;;;;;12.86;79.29;102084.91;4693251;30;20052;-95
2022/07/02 02:58:22;;;;;;;4.95;2.40;;;;;;;12.74;78.03;102074.41;4694722;30;20033;-94
2022/07/02 03:00:52;;;;;;;9.38;2.70;;;;;;;12.73;77.91;102086.78;4694692;30;20045;-94
2022/07/02 03:06:26;;;;;;;6.20;2.58;;;;;;;12.72;78.05;102087.69;4702328;30;20041;-94
2022/07/02 03:09:10;;;;;;;;;;;;;;;;;;;;;
2022/07/02 03:11:38;;;;;;;7.50;3.00;;;;;;;12.63;78.42;102090.44;4704640;30;20041;-93
2022/07/02 03:14:06;;;;;;;4.60;2.67;;;;;;;12.57;78.28;102086.06;4704919;30;20103;-93
2022/07/02 03:16:43;;;;;;;8.48;2.78;;;;;;;12.57;79.58;102087.88;4662250;30;20071;-92
2022/07/02 03:19:26;;;;;;;6.93;3.10;;;;;;;12.56;79.25;102091.41;4691416;30;20052;-91
2022/07/02 03:21:54;;;;;;;6.32;3.30;;;;;;;12.46;78.92;102087.94;4689743;30;20359;-91
2022/07/02 03:24:26;;;;;;;6.63;2.97;;;;;;;12.42;79.67;102084.47;4704319;30;20036;-91
2022/07/02 03:27:05;;;;;;;6.28;2.50;;;;;;;12.40;80.26;102093.34;4705119;30;20052;-92
2022/07/02 03:29:32;;;;;;;4.47;2.83;;;;;;;12.38;79.27;102097.78;4704569;30;20040;-91
2022/07/02 03:32:00;;;;;;;3.83;2.50;;;;;;;12.47;79.55;102122.47;4689885;30;20549;-90
2022/07/02 03:38:21;;;;;;;6.40;2.92;;;;;;;12.54;80.17;102118.00;4719944;30;20052;-91
2022/07/02 03:40:47;;;;;;;6.15;2.65;;;;;;;12.57;79.86;102120.63;4701452;30;20037;-91
2022/07/02 03:43:19;;;;;;;7.63;2.67;;;;;;;12.67;80.61;102132.91;4702613;30;20063;-90
2022/07/02 03:45:48;;;;;;;7.70;2.63;;;;;;;12.65;79.71;102118.75;4673773;30;20045;-91
2022/07/02 03:48:17;;;;;;;6.47;2.75;;;;;;;12.66;79.07;102109.91;4701077;30;20053;-92
2022/07/02 03:50:42;;;;;;;6.65;2.90;;;;;;;12.83;79.40;102132.75;4686823;30;20475;-91
2022/07/02 03:53:12;;;;;;;6.13;3.33;;;;;;;12.83;79.15;102124.78;4686834;30;20052;-91
2022/07/02 03:55:40;;;;;;;5.57;2.85;;;;;;;12.73;79.27;102099.19;4701411;30;20033;-92
2022/07/02 03:58:08;;;;;;;10.02;3.20;;;;;;;12.81;78.98;102105.31;4701622;30;20037;-91
2022/07/02 04:00:34;;;;;;;7.15;2.88;;;;;;;12.79;79.43;102107.13;4687135;30;20055;-91
2022/07/02 04:03:16;;;;;;;11.30;3.08;;;;;;;12.74;78.77;102106.28;4687223;30;20056;-91
2022/07/02 04:05:45;;;;;;;5.90;2.75;;;;;;;12.78;79.20;102113.31;4672308;30;20132;-91
2022/07/02 04:08:10;;;;;;;4.85;2.85;;;;;;;12.77;79.10;102106.25;4686546;30;20115;-90
2022/07/02 04:10:36;;;;;;;10.00;3.10;;;;;;;12.90;79.74;102123.81;4700874;30;20029;-90
2022/07/02 04:13:15;;;;;;;9.07;3.00;;;;;;;12.87;79.80;102116.75;4686883;30;20107;-91
2022/07/02 04:15:51;;;;;;;8.90;2.92;;;;;;;13.00;79.90;102122.81;4704060;30;20068;-90
2022/07/02 04:18:19;;;;;;;7.40;2.75;;;;;;;13.03;79.12;102121.91;4749736;30;20113;-90
2022/07/02 04:21:08;;;;;;;8.73;3.10;;;;;;;13.01;79.10;102118.41;4721159;30;20145;-91
2022/07/02 04:23:50;;;;;;;7.03;2.88;;;;;;;12.98;79.02;102119.31;4709014;30;20048;-90
2022/07/02 04:26:57;;;;;;;8.30;3.53;;;;;;;13.00;78.97;102106.84;4695153;30;20136;-91
2022/07/02 04:29:34;;;;;;;8.20;2.83;;;;;;;13.01;78.68;102111.28;4720651;30;20040;-90
2022/07/02 04:32:03;;;;;;;7.80;3.07;;;;;;;13.06;78.86;102116.56;4693443;30;20040;-91
2022/07/02 04:34:28;;;;;;;6.85;2.97;;;;;;;13.05;79.00;102122.78;4720493;30;20128;-90
2022/07/02 04:36:54;;;;;;;6.80;2.97;;;;;;;13.11;79.45;102120.06;4705851;30;20472;-91
2022/07/02 04:39:25;;;;;;;12.25;3.22;;;;;;;13.22;79.04;102126.09;4706162;30;20048;-90
2022/07/02 04:41:57;;;;;;;6.60;2.88;;;;;;;13.32;79.52;102126.91;4721021;30;20032;-92
2022/07/02 04:44:26;;;;;;;10.95;3.10;;;;;;;13.36;78.58;102125.09;4706139;30;20516;-91
2022/07/02 04:47:07;;;;;;;6.30;2.88;;;;;;;13.48;78.35;102116.97;4705994;30;20040;-91
2022/07/02 04:49:39;;;;;;;9.43;2.83;;;;;;;13.56;77.92;102125.72;4706380;30;20117;-92
2022/07/02 04:52:16;;;;;;;8.48;2.70;;;;;;;13.57;77.03;102111.47;4734158;30;20061;-94
2022/07/02 04:54:48;;;;;;;8.48;2.40;;;;;;;13.71;76.54;102121.94;4705891;30;20391;-94
2022/07/02 04:57:59;;;;;;;;;;;;;;;;;;;;;
2022/07/02 05:05:11;;;;;;;5.43;2.58;;;;;;;14.12;75.44;102139.97;4698492;30;20187;-93
2022/07/02 05:08:00;;;;;;;5.35;2.10;;;;;;;14.25;75.02;102139.78;4705641;30;20047;-94
2022/07/02 05:19:21;;;;;;;5.45;1.73;;;;;;;14.58;74.00;102130.34;4693954;30;20600;-94
2022/07/02 05:42:25;;;;;;;8.18;2.10;;;;;;;14.91;70.02;102127.94;4581910;31;20448;-93
2022/07/02 06:57:24;;;;;;;2.88;1.10;;;;;;;17.14;57.56;102166.38;4750726;30;20094;-92
2022/07/02 07:00:01;;;;;;;4.82;1.08;;;;;;;17.04;56.71;102151.50;4734205;30;20087;-92
2022/07/02 07:03:03;;;;;;;;;;;;;;;;;;;;;
2022/07/02 07:06:22;;;;;;;3.50;1.30;;;;;;;17.35;56.73;102140.78;4737070;30;20047;-87
2022/07/02 07:08:53;;;;;;;3.47;1.10;;;;;;;17.43;55.86;102138.72;4724337;30;20101;-86
2022/07/02 07:11:26;;;;;;;2.15;1.05;;;;;;;17.52;55.61;102145.63;4738221;30;20485;-88
2022/07/02 07:14:04;;;;;;;3.65;0.82;;;;;;;17.65;56.24;102140.78;4724536;30;20040;-87
2022/07/02 07:16:46;;;;;;;4.45;1.08;;;;;;;17.83;53.72;102159.88;4737877;30;20108;-87
2022/07/02 07:19:30;;;;;;;5.22;1.20;;;;;;;17.75;54.26;102143.09;4725508;30;20087;-88
2022/07/02 07:21:58;;;;;;;3.72;1.13;;;;;;;17.84;53.09;102150.91;4737844;30;20051;-87
2022/07/02 07:24:36;;;;;;;8.80;1.50;;;;;;;18.05;54.25;102173.47;4731956;30;20068;-87
2022/07/02 07:27:04;;;;;;;3.92;1.25;;;;;;;18.08;53.64;102167.16;4732591;30;20436;-87
2022/07/02 07:29:48;;;;;;;;;;;;;;;;;;;;;
2022/07/02 07:32:22;;;;;;;2.33;1.00;;;;;;;18.35;53.47;102157.31;4723910;30;20520;-88
2022/07/02 07:34:49;;;;;;;2.47;1.02;;;;;;;18.40;52.39;102147.31;4727035;30;20123;-86
2022/07/02 07:37:18;;;;;;;3.45;0.77;;;;;;;18.45;52.35;102141.78;4754001;30;20119;-88
2022/07/02 07:39:49;;;;;;;4.28;1.23;;;;;;;18.70;52.30;102149.88;4721459;30;20044;-88
2022/07/02 07:42:18;;;;;;;3.20;1.00;;;;;;;18.63;52.19;102140.28;4717221;30;20215;-86
2022/07/02 07:44:50;;;;;;;4.18;0.77;;;;;;;18.77;52.29;102166.63;4722289;30;20048;-86
2022/07/02 07:47:23;;;;;;;2.97;1.13;;;;;;;18.70;51.83;102152.53;4717531;30;20509;-86
2022/07/02 07:50:15;;;;;;;4.47;1.60;;;;;;;18.85;52.78;102156.53;4710055;30;20048;-87
2022/07/02 07:52:44;;;;;;;2.42;1.10;;;;;;;18.95;51.25;102143.66;4724603;30;20040;-87
2022/07/02 07:55:09;;;;;;;3.88;1.38;;;;;;;18.93;51.94;102149.06;4719013;30;20068;-86
2022/07/02 07:57:37;;;;;;;4.38;1.50;;;;;;;18.98;52.21;102148.91;4719998;30;20390;-85
2022/07/02 08:00:35;;;;;;;3.07;1.13;;;;;;;19.23;52.73;102155.13;4705363;30;20040;-87
2022/07/02 08:03:01;;;;;;;3.55;1.00;;;;;;;19.31;50.49;102145.00;4719003;30;20357;-87
2022/07/02 08:05:28;;;;;;;3.08;1.20;;;;;;;19.41;52.37;102141.94;4735297;30;20493;-87
2022/07/02 08:08:01;;;;;;;4.43;1.17;;;;;;;19.51;51.07;102144.22;4719285;30;20490;-87
2022/07/02 08:10:38;;;;;;;5.82;1.20;;;;;;;19.61;50.10;102152.81;4706027;30;20044;-86
2022/07/02 08:13:23;;;;;;;9.73;1.33;;;;;;;19.74;51.39;102148.72;4719509;30;20139;-87
2022/07/02 08:15:59;;;;;;;7.35;1.30;;;;;;;19.90;49.41;102158.84;4675873;30;20053;-86
2022/07/02 08:18:28;;;;;;;2.05;0.98;;;;;;;19.97;51.16;102142.41;4710863;30;20049;-86
2022/07/02 08:20:56;;;;;;;3.75;1.40;;;;;;;19.98;49.47;102140.63;4719503;30;20118;-86
2022/07/02 08:23:25;;;;;;;2.70;0.95;;;;;;;19.98;49.45;102138.81;4704323;30;20049;-88
2022/07/02 08:25:56;;;;;;;2.75;0.93;;;;;;;20.13;49.04;102140.00;4704906;30;20086;-87
2022/07/02 08:28:24;;;;;;;2.70;1.30;;;;;;;20.24;48.43;102144.03;4719043;30;20044;-85
2022/07/02 08:30:51;;;;;;;4.45;1.25;;;;;;;20.25;49.01;102130.53;4734917;30;20028;-90
2022/07/02 08:33:18;;;;;;;3.83;1.30;;;;;;;20.31;49.68;102118.63;4719445;30;20044;-85
2022/07/02 08:35:44;;;;;;;2.70;1.02;;;;;;;20.58;49.85;102135.44;4718903;30;20408;-87
2022/07/02 08:38:13;;;;;;;4.05;1.20;;;;;;;20.60;47.42;102128.19;4718760;30;20375;-86
2022/07/02 08:40:43;;;;;;;5.20;1.30;;;;;;;20.70;48.90;102124.16;4719366;30;20131;-85
2022/07/02 08:43:27;;;;;;;3.17;1.10;;;;;;;20.76;47.69;102126.56;4719542;30;20049;-85
2022/07/02 08:45:54;;;;;;;4.60;1.20;;;;;;;20.90;47.79;102114.31;4704823;30;20307;-84
2022/07/02 08:48:26;;;;;;;2.95;1.40;;;;;;;20.88;47.45;102118.88;4704515;30;20025;-87
2022/07/02 08:50:56;;;;;;;11.00;3.75;;;;;;;20.97;47.09;102127.44;4719372;30;20151;-85
2022/07/02 08:53:22;;;;;;;10.32;2.40;;;;;;;21.09;46.60;102122.41;4719341;30;20075;-86
2022/07/02 08:55:53;;;;;;;10.27;1.98;;;;;;;21.13;44.59;102115.94;4742946;30;20093;-85
2022/07/02 08:58:20;;;;;;;9.00;2.22;;;;;;;21.17;45.21;102106.81;4750515;30;20060;-85
2022/07/02 09:00:48;;;;;;;3.75;1.52;;;;;;;21.27;46.51;102103.59;4711188;30;20123;-82
2022/07/02 09:03:17;;;;;;;4.35;1.63;;;;;;;21.30;45.16;102105.25;4751116;30;20032;-84
2022/07/02 09:05:43;;;;;;;4.50;1.70;;;;;;;21.44;45.39;102110.06;4735724;30;20492;-83
2022/07/02 09:08:10;;;;;;;4.57;1.45;;;;;;;21.57;44.71;102113.91;4752031;30;20047;-83
2022/07/02 09:10:38;;;;;;;5.15;1.50;;;;;;;21.64;45.52;102099.19;4721905;30;20425;-83
2022/07/02 09:13:05;;;;;;;6.45;1.35;;;;;;;21.78;44.73;102101.19;4736448;30;20047;-84
2022/07/02 09:15:31;;;;;;;4.45;1.00;;;;;;;21.90;46.12;102107.81;4732695;30;20041;-84
2022/07/02 09:17:57;;;;;;;3.20;1.38;;;;;;;21.89;43.46;102096.16;4751605;30;20131;-84
2022/07/02 09:20:23;;;;;;;4.53;1.13;;;;;;;21.98;44.11;102097.50;4709581;30;20051;-84
2022/07/02 09:22:52;;;;;;;7.13;1.17;;;;;;;22.08;44.00;102101.50;4721753;30;20072;-84
2022/07/02 09:25:25;;;;;;;4.22;1.40;;;;;;;22.19;44.69;102086.59;4735948;30;20480;-83
2022/07/02 09:27:59;;;;;;;6.13;1.33;;;;;;;22.33;44.10;102082.28;4717778;30;20123;-85
2022/07/02 09:30:27;;;;;;;5.40;1.67;;;;;;;22.51;44.42;102095.75;4726698;30;20124;-84
2022/07/02 09:35:40;;;;;;;3.78;1.30;;;;;;;22.70;42.71;102093.84;4732069;30;20048;-84
2022/07/02 09:38:10;;;;;;;4.95;1.30;;;;;;;22.67;43.07;102093.13;4715582;30;20099;-84
2022/07/02 09:40:55;;;;;;;4.57;1.10;;;;;;;22.67;43.38;102083.19;4708567;30;20036;-84
2022/07/02 09:43:31;;;;;;;4.50;1.33;;;;;;;22.84;43.11;102076.88;4716975;30;20580;-85
2022/07/02 09:46:00;;;;;;;3.45;1.40;;;;;;;22.92;41.84;102069.25;4736267;30;20051;-83
2022/07/02 09:48:28;;;;;;;;;;;;;;;23.07;42.63;102077.50;4722260;30;20401;-83
2022/07/02 09:50:54;;;;;;;5.88;1.38;;;;;;;22.82;42.14;102069.81;4752093;30;19976;-84
2022/07/02 09:53:20;;;;;;;4.30;1.63;;;;;;;22.86;41.74;102063.31;4715199;30;20055;-85
2022/07/02 09:55:50;;;;;;;4.22;1.42;;;;;;;22.92;42.86;102053.06;4747499;30;20052;-85
2022/07/02 09:58:22;;;;;;;;;;;;;;;23.15;43.69;102072.56;4736440;30;20044;-85
2022/07/02 10:00:48;;;;;;;4.03;1.25;;;;;;;23.11;42.58;102063.72;4742849;30;19922;-84
2022/07/02 10:03:14;;;;;;;9.40;1.60;;;;;;;23.07;41.26;102059.47;4717595;30;20036;-83
2022/07/02 10:05:41;;;;;;;6.50;1.60;;;;;;;23.26;42.43;102058.44;4720716;30;20180;-85
2022/07/02 10:08:07;;;;;;;7.38;1.40;;;;;;;23.53;42.99;102064.13;4721732;30;20520;-83
2022/07/02 10:10:38;;;;;;;3.13;1.40;;;;;;;23.72;40.86;102067.50;4751740;30;20032;-83
2022/07/02 10:13:13;;;;;;;8.05;1.40;;;;;;;23.82;41.85;102052.53;4736091;30;20040;-85
2022/07/02 10:15:51;;;;;;;4.55;1.40;;;;;;;23.83;41.03;102047.97;4751571;30;20127;-86
2022/07/02 10:18:18;;;;;;;5.70;1.30;;;;;;;23.75;39.22;102045.72;4729391;30;20093;-87
2022/07/02 10:20:47;;;;;;;8.05;1.73;;;;;;;23.96;39.90;102048.13;4713404;30;20032;-85
2022/07/02 10:23:14;;;;;;;4.32;1.25;;;;;;;24.14;40.57;102048.88;4724757;30;20036;-85
2022/07/02 10:25:44;;;;;;;10.82;1.50;;;;;;;24.14;40.21;102035.34;4736917;30;20036;-84
2022/07/02 10:28:10;;;;;;;5.18;1.70;;;;;;;24.32;38.92;102039.63;4721204;30;20123;-86
2022/07/02 10:30:36;;;;;;;3.35;1.25;;;;;;;24.34;38.47;102021.47;4717335;30;20127;-84
2022/07/02 10:33:22;;;;;;;3.17;0.95;;;;;;;24.43;37.41;102036.25;4735564;30;20067;-85
2022/07/02 10:35:49;;;;;;;4.60;1.30;;;;;;;24.10;38.56;102018.41;4746399;30;20045;-85
2022/07/02 10:38:26;;;;;;;2.20;1.02;;;;;;;23.96;38.55;102035.50;4730708;30;20059;-83
2022/07/02 10:40:51;;;;;;;4.95;1.40;;;;;;;23.95;39.54;102030.16;4728505;30;20520;-83
2022/07/02 10:43:18;;;;;;;8.48;1.65;;;;;;;24.29;39.53;102034.41;4720240;30;20126;-86
2022/07/02 10:45:45;;;;;;;4.28;1.30;;;;;;;24.46;38.73;102020.75;4748620;30;20040;-85
2022/07/02 10:48:25;;;;;;;4.43;0.98;;;;;;;24.56;37.54;102033.72;4728481;30;20064;-83
2022/07/02 10:50:57;;;;;;;5.57;1.35;;;;;;;24.34;37.35;102037.72;4724072;30;20053;-85
2022/07/02 10:53:28;;;;;;;3.80;1.10;;;;;;;23.98;38.55;102022.72;4739642;30;20063;-86
2022/07/02 10:56:02;;;;;;;4.13;1.40;;;;;;;23.98;38.05;102040.78;4729763;30;20114;-86
2022/07/02 11:02:16;;;;;;;2.38;1.25;;;;;;;24.45;39.16;102028.91;4752791;30;20449;-86
2022/07/02 11:04:48;;;;;;;3.72;1.20;;;;;;;24.42;38.04;102011.03;4743141;30;20131;-85
2022/07/02 11:07:16;;;;;;;2.67;1.05;;;;;;;24.59;40.17;102022.69;4734133;30;20067;-85
2022/07/02 11:09:57;;;;;;;4.85;1.17;;;;;;;24.80;40.02;102012.31;4722745;30;20036;-84
2022/07/02 11:12:57;;;;;;;4.28;1.10;;;;;;;25.05;38.60;102022.50;4737730;30;20338;-87
2022/07/02 11:15:55;;;;;;;2.55;1.15;;;;;;;24.74;38.56;102010.88;4736387;30;20167;-86
2022/07/02 11:18:24;;;;;;;4.85;1.13;;;;;;;24.46;37.13;102018.03;4738644;30;20040;-85
2022/07/02 11:20:52;;;;;;;5.00;1.10;;;;;;;24.11;38.84;102016.56;4720623;30;20049;-86
2022/07/02 11:23:29;;;;;;;3.92;1.13;;;;;;;23.88;39.45;102008.00;4734726;30;20094;-84
2022/07/02 11:25:58;;;;;;;5.70;1.20;;;;;;;24.16;39.85;102006.34;4721880;30;20071;-85
2022/07/02 11:28:39;;;;;;;3.35;1.13;;;;;;;24.20;39.12;102010.59;4737027;30;20166;-86
2022/07/02 11:31:42;;;;;;;4.60;1.05;;;;;;;24.09;38.78;102005.84;4725841;30;20036;-86
2022/07/02 11:34:31;;;;;;;2.85;0.90;;;;;;;23.98;38.64;101987.53;4736573;30;20139;-86
2022/07/02 11:37:18;;;;;;;3.10;1.20;;;;;;;24.11;38.59;101987.69;4737735;30;20079;-86
2022/07/02 11:39:52;;;;;;;3.53;1.15;;;;;;;24.07;39.17;101986.13;4720013;30;20055;-85
2022/07/02 11:42:18;;;;;;;5.80;1.33;;;;;;;24.10;36.93;101996.75;4735799;30;20044;-85
2022/07/02 11:44:43;;;;;;;3.35;0.95;;;;;;;24.24;37.44;101985.09;4735521;30;20036;-84
2022/07/02 11:47:12;;;;;;;2.22;1.00;;;;;;;24.36;37.73;101976.22;4731161;30;20036;-86
2022/07/02 11:49:43;;;;;;;3.90;1.10;;;;;;;24.53;38.06;101979.72;4721584;30;20537;-86
2022/07/02 11:52:35;;;;;;;3.25;1.08;;;;;;;24.68;38.08;101970.66;4736924;30;20101;-85
2022/07/02 11:55:14;;;;;;;4.82;2.13;;;;;;;24.95;38.26;101983.38;4724846;30;20043;-84
2022/07/02 11:57:40;;;;;;;4.38;1.10;;;;;;;24.88;35.24;101972.09;4725203;30;20111;-84
2022/07/02 12:00:17;;;;;;;3.88;1.15;;;;;;;24.87;36.69;101978.47;4720905;30;20122;-85
2022/07/02 12:02:49;;;;;;;3.28;0.98;;;;;;;24.96;34.87;101963.47;4724781;30;20454;-84
2022/07/02 12:05:27;;;;;;;4.70;0.68;;;;;;;25.08;36.08;101960.81;4723234;30;20056;-84
2022/07/02 12:07:53;;;;;;;2.17;0.80;;;;;;;25.05;35.50;101960.16;4737491;30;20064;-84
2022/07/02 12:10:19;;;;;;;2.58;1.00;;;;;;;24.99;34.89;101968.69;4736775;30;20108;-85
2022/07/02 12:12:47;;;;;;;4.65;1.10;;;;;;;24.95;35.26;101972.53;4730057;30;20100;-83
2022/07/02 12:15:28;;;;;;;1.90;0.60;;;;;;;25.11;36.13;101959.75;4707239;30;20072;-85
2022/07/02 12:17:55;;;;;;;5.15;1.15;;;;;;;24.89;34.38;101971.97;4723940;30;20091;-83
2022/07/02 12:20:24;;;;;;;1.90;0.90;;;;;;;24.60;34.32;101951.31;4728676;30;20043;-84
2022/07/02 12:22:54;;;;;;;4.50;0.90;;;;;;;25.03;35.05;101954.84;4725043;30;20071;-84
2022/07/02 12:25:20;;;;;;;7.68;1.33;;;;;;;25.35;36.31;101951.00;4717788;30;20040;-83
2022/07/02 12:29:52;;;;;;;2.95;0.93;;;;;;;25.36;36.00;101936.47;4732161;30;20437;-85
2022/07/02 12:30:53;;;;;;;3.97;1.48;;;;;;;25.20;35.09;101929.38;4726124;30;20493;-82
2022/07/02 12:33:35;;;;;;;4.32;0.90;;;;;;;25.13;35.67;101938.84;4728899;30;20051;-82
2022/07/02 12:36:09;;;;;;;5.50;0.93;;;;;;;25.07;35.18;101940.13;4719343;30;20044;-83
2022/07/02 12:39:18;;;;;;;;;;;;;;;;;;;;;
2022/07/02 12:42:11;;;;;;;4.15;1.17;;;;;;;25.15;35.63;101936.91;4722351;30;20060;-86
2022/07/02 12:45:02;;;;;;;2.22;1.15;;;;;;;25.00;35.22;101929.75;4718397;30;20370;-84
2022/07/02 12:47:40;;;;;;;3.00;1.08;;;;;;;24.86;36.41;101920.72;4714808;30;20048;-85
2022/07/02 12:50:11;;;;;;;1.98;1.05;;;;;;;24.88;37.04;101936.88;4711925;30;20035;-84
2022/07/02 12:53:02;;;;;;;2.35;0.90;;;;;;;24.79;37.50;101908.53;4735653;30;20044;-85
2022/07/02 12:55:55;;;;;;;2.88;1.25;;;;;;;25.38;38.36;101902.84;4732166;30;20527;-86
2022/07/02 12:58:39;;;;;;;3.60;0.95;;;;;;;25.79;36.22;101920.88;4707296;30;20055;-86
2022/07/02 13:01:08;;;;;;;4.22;1.17;;;;;;;25.87;33.84;101893.22;4715310;30;20490;-86
2022/07/02 13:03:34;;;;;;;7.30;1.27;;;;;;;26.05;35.25;101899.22;4735763;30;20174;-84
2022/07/02 13:06:01;;;;;;;2.42;0.80;;;;;;;26.04;35.62;101914.63;4736165;30;20469;-84
2022/07/02 13:08:27;;;;;;;7.63;1.40;;;;;;;25.83;35.58;101913.38;4735326;30;20058;-84
2022/07/02 13:10:57;;;;;;;3.22;1.10;;;;;;;25.60;34.94;101910.41;4735920;30;20620;-84
2022/07/02 13:13:24;;;;;;;9.77;1.60;;;;;;;25.40;34.25;101900.91;4721486;30;20040;-84
2022/07/02 13:15:53;;;;;;;5.28;1.20;;;;;;;25.34;35.40;101900.44;4730880;30;20385;-86
2022/07/02 13:18:19;;;;;;;6.20;1.40;;;;;;;25.53;35.75;101903.66;4729328;30;20039;-85
2022/07/02 13:20:45;;;;;;;7.35;1.25;;;;;;;25.64;35.98;101886.63;4706764;30;20458;-85
2022/07/02 13:23:18;;;;;;;4.53;1.15;;;;;;;25.64;33.66;101886.63;4735843;30;20048;-85
2022/07/02 13:25:54;;;;;;;6.38;1.08;;;;;;;25.69;36.68;101898.94;4735721;30;20497;-85
2022/07/02 13:28:29;;;;;;;2.78;1.15;;;;;;;25.73;36.18;101883.28;4707856;30;20513;-84
2022/07/02 13:30:55;;;;;;;7.38;1.38;;;;;;;25.99;35.93;101891.47;4727541;30;20139;-84
2022/07/02 13:33:20;;;;;;;3.28;1.40;;;;;;;26.14;36.34;101882.28;4721047;30;20128;-84
2022/07/02 13:35:46;;;;;;;2.72;1.15;;;;;;;26.04;35.59;101876.63;4723122;30;20039;-84
2022/07/02 13:38:12;;;;;;;3.33;1.27;;;;;;;25.92;34.38;101891.94;4716920;30;20075;-83
2022/07/02 13:40:41;;;;;;;2.13;1.00;;;;;;;25.59;34.47;101869.81;4733016;30;20516;-84
2022/07/02 13:43:06;;;;;;;1.83;0.93;;;;;;;25.51;35.36;101867.63;4735602;30;20568;-85
2022/07/02 13:45:35;;;;;;;2.45;1.15;;;;;;;25.41;35.96;101867.38;4734978;30;20119;-86
2022/07/02 13:48:01;;;;;;;1.67;0.80;;;;;;;25.28;35.42;101871.94;4734876;30;20177;-84
2022/07/02 13:50:26;;;;;;;3.42;1.00;;;;;;;25.50;35.09;101863.19;4730903;30;20134;-83
2022/07/02 13:53:27;;;;;;;1.25;0.73;;;;;;;26.04;36.44;101867.59;4719666;30;20040;-86
2022/07/02 13:56:11;;;;;;;2.22;0.80;;;;;;;26.90;34.17;101866.81;4709591;30;20045;-86
2022/07/02 13:58:40;;;;;;;3.50;0.93;;;;;;;26.72;32.08;101861.75;4734054;30;20040;-85
2022/07/02 14:01:08;;;;;;;3.47;0.93;;;;;;;26.52;33.08;101865.91;4716189;30;20057;-86
2022/07/02 14:03:36;;;;;;;3.53;1.10;;;;;;;26.26;33.76;101851.53;4723914;30;20048;-84
2022/07/02 14:06:08;;;;;;;3.58;1.15;;;;;;;25.95;32.76;101850.13;4720069;30;20054;-86
2022/07/02 14:08:44;;;;;;;2.42;0.90;;;;;;;26.15;35.08;101852.28;4704118;30;20147;-86
2022/07/02 14:11:13;;;;;;;4.07;0.95;;;;;;;26.28;32.81;101846.81;4732637;30;20051;-85
2022/07/02 14:13:42;;;;;;;5.25;1.13;;;;;;;26.27;32.12;101849.69;4719973;30;20032;-85
2022/07/02 14:16:11;;;;;;;5.32;1.23;;;;;;;26.33;34.10;101846.50;4715570;30;20052;-85
2022/07/02 14:18:46;;;;;;;3.65;0.88;;;;;;;26.57;34.98;101849.31;4713259;30;20056;-85
2022/07/02 14:21:11;;;;;;;3.05;0.90;;;;;;;26.38;32.82;101837.06;4734552;30;20044;-84
2022/07/02 14:23:37;;;;;;;3.40;0.70;;;;;;;26.14;31.61;101836.13;4721786;30;20053;-84
2022/07/02 14:26:08;;;;;;;6.13;0.70;;;;;;;26.03;33.70;101836.88;4750696;30;20374;-85